Time;durP1;ratioP1;P1;durP2;ratioP2;P2;SDS_P1;SDS_P2;PMS_P1;PMS_P2;Temp;Humidity;BMP_temperature;BMP_pressure;BME280_temperature;BME280_humidity;BME280_pressure;Samples;Min_cycle;Max_cycle;Signal;HPM_P1;HPM_P2
2021/06/20 00:05:58;;;;;;;7.78;6.20;;;;;;;24.57;78.94;98958.27;4441149;78;28431;-84
2021/06/20 00:11:59;;;;;;;9.43;6.55;;;;;;;24.04;84.40;98958.92;4448991;78;28453;-84
2021/06/20 00:18:02;;;;;;;11.15;6.47;;;;;;;24.21;83.03;98947.11;4458691;80;28519;-83
2021/06/20 00:24:06;;;;;;;9.55;6.75;;;;;;;23.92;87.15;98943.88;4436758;79;28469;-83
2021/06/20 00:30:12;;;;;;;9.05;6.28;;;;;;;23.83;89.10;98954.59;4448994;80;28525;-84
2021/06/20 00:36:13;;;;;;;11.08;6.83;;;;;;;23.92;88.04;98935.64;4408542;78;28522;-83
2021/06/20 00:42:14;;;;;;;9.10;7.60;;;;;;;23.88;89.09;98945.63;4393856;78;28574;-83
2021/06/20 00:48:15;;;;;;;10.00;7.22;;;;;;;23.37;96.56;98936.45;4411606;78;28463;-82
2021/06/20 00:54:17;;;;;;;9.58;7.37;;;;;;;23.43;96.81;98927.53;4308681;80;28484;-82
2021/06/20 01:00:18;;;;;;;9.98;7.62;;;;;;;23.17;99.94;98926.05;4333846;80;28468;-83
2021/06/20 01:06:20;;;;;;;10.25;7.30;;;;;;;23.26;98.51;98927.70;4294022;80;28526;-83
2021/06/20 01:12:22;;;;;;;10.75;7.40;;;;;;;23.83;90.63;98937.58;4356484;80;28493;-83
2021/06/20 01:18:23;;;;;;;10.00;7.20;;;;;;;23.50;95.59;98929.22;4334616;81;28460;-82
2021/06/20 01:24:26;;;;;;;10.00;7.62;;;;;;;23.39;98.57;98914.20;4378848;80;28475;-82
2021/06/20 01:30:31;;;;;;;11.15;8.08;;;;;;;23.35;98.64;98911.86;4367205;80;28466;-83
2021/06/20 01:36:33;;;;;;;9.83;8.03;;;;;;;23.34;95.35;98920.64;4352271;80;28498;-83
2021/06/20 01:42:34;;;;;;;11.88;8.20;;;;;;;23.08;99.46;98899.98;4369333;80;28499;-83
2021/06/20 01:48:36;;;;;;;11.40;8.20;;;;;;;22.83;100.00;98909.97;4387188;78;28560;-84
2021/06/20 01:54:51;;;;;;;8.63;7.72;;;;;;;22.90;100.00;98914.20;4349282;80;28513;-83
2021/06/20 02:00:54;;;;;;;10.50;8.05;;;;;;;22.89;100.00;98911.22;4380154;81;28509;-83
2021/06/20 02:06:55;;;;;;;10.00;8.13;;;;;;;22.58;100.00;98898.35;4375199;80;28514;-82
2021/06/20 02:12:57;;;;;;;12.13;7.90;;;;;;;22.33;100.00;98884.98;4416260;78;28471;-86
2021/06/20 02:18:58;;;;;;;10.03;8.03;;;;;;;22.49;100.00;98875.00;4451440;79;28479;-86
2021/06/20 02:25:00;;;;;;;11.03;8.08;;;;;;;22.21;100.00;98882.80;4440597;79;28488;-86
2021/06/20 02:31:01;;;;;;;11.40;7.83;;;;;;;22.17;100.00;98888.67;4430586;78;28569;-86
2021/06/20 02:37:05;;;;;;;10.65;7.87;;;;;;;22.12;100.00;98875.92;4451149;79;28539;-84
2021/06/20 02:43:06;;;;;;;9.60;7.95;;;;;;;21.64;100.00;98888.80;4451026;79;28559;-83
2021/06/20 02:49:08;;;;;;;12.73;8.23;;;;;;;21.91;100.00;98905.70;4451186;78;28433;-83
2021/06/20 02:55:10;;;;;;;12.73;8.33;;;;;;;21.81;100.00;98893.63;4451037;78;28483;-83
2021/06/20 03:01:12;;;;;;;10.45;8.80;;;;;;;21.45;100.00;98894.67;4451301;79;28433;-83
2021/06/20 03:07:13;;;;;;;11.38;8.05;;;;;;;21.84;100.00;98901.23;4458197;78;28473;-84
2021/06/20 03:13:15;;;;;;;15.93;8.90;;;;;;;21.82;100.00;98910.33;4393138;78;28497;-83
2021/06/20 03:19:16;;;;;;;10.80;8.20;;;;;;;21.74;100.00;98920.05;4378970;78;28487;-84
2021/06/20 03:25:17;;;;;;;11.08;7.83;;;;;;;22.55;100.00;98914.30;4358295;80;28563;-84
2021/06/20 03:31:19;;;;;;;11.45;8.00;;;;;;;22.30;100.00;98907.52;4312709;80;28545;-85
2021/06/20 03:37:20;;;;;;;11.03;8.88;;;;;;;22.28;100.00;98909.19;4311611;80;28527;-82
2021/06/20 03:43:22;;;;;;;11.15;8.55;;;;;;;22.35;100.00;98906.00;4315262;80;28494;-83
2021/06/20 03:49:23;;;;;;;12.73;8.63;;;;;;;22.81;100.00;98899.89;4307862;80;28476;-83
2021/06/20 03:55:24;;;;;;;11.05;8.88;;;;;;;22.26;100.00;98903.23;4305533;80;28514;-83
2021/06/20 04:01:26;;;;;;;10.68;8.75;;;;;;;22.47;100.00;98901.88;4323875;81;28498;-83
2021/06/20 04:07:27;;;;;;;12.53;10.00;;;;;;;22.91;100.00;98897.45;4340060;81;28530;-83
2021/06/20 04:13:28;;;;;;;12.78;9.60;;;;;;;22.22;100.00;98900.84;4397225;80;28442;-83
2021/06/20 04:19:30;;;;;;;12.03;10.05;;;;;;;22.56;100.00;98883.04;4411577;79;28508;-83
2021/06/20 04:25:31;;;;;;;12.55;9.88;;;;;;;23.07;100.00;98881.92;4397078;79;28495;-83
2021/06/20 04:31:33;;;;;;;10.98;8.43;;;;;;;23.00;100.00;98882.94;4399200;80;28469;-86
2021/06/20 04:37:34;;;;;;;13.75;10.28;;;;;;;23.25;100.00;98879.47;4377771;79;28451;-85
2021/06/20 04:43:57;;;;;;;13.93;10.58;;;;;;;23.28;100.00;98893.69;4347819;79;28466;-86
2021/06/20 04:49:45;;;;;;;11.33;9.13;;;;;;;23.32;100.00;98891.91;4345799;80;28498;-85
2021/06/20 04:55:46;;;;;;;12.10;9.23;;;;;;;23.80;100.00;98894.31;4347543;80;28489;-88
2021/06/20 05:01:48;;;;;;;11.90;9.60;;;;;;;23.86;100.00;98887.51;4369702;80;28460;-88
2021/06/20 05:07:50;;;;;;;18.27;10.23;;;;;;;24.36;100.00;98883.99;4349556;80;28450;-88
2021/06/20 05:13:51;;;;;;;13.60;9.65;;;;;;;23.34;100.00;98879.50;4394076;80;28465;-87
2021/06/20 05:19:53;;;;;;;13.70;10.58;;;;;;;24.05;100.00;98863.84;4369056;80;28485;-88
2021/06/20 05:25:54;;;;;;;13.38;9.50;;;;;;;23.51;100.00;98855.97;4358177;80;28460;-85
2021/06/20 05:31:55;;;;;;;12.58;9.20;;;;;;;23.63;100.00;98859.42;4382584;79;28461;-86
2021/06/20 05:37:57;;;;;;;9.85;8.55;;;;;;;24.09;100.00;98874.44;4356471;80;28436;-89
2021/06/20 05:43:58;;;;;;;11.55;9.98;;;;;;;24.36;100.00;98864.17;4346530;80;28436;-91
2021/06/20 05:50:00;;;;;;;13.38;9.68;;;;;;;24.40;100.00;98859.42;4360981;80;28520;-90
2021/06/20 05:56:01;;;;;;;11.25;9.53;;;;;;;24.48;100.00;98864.87;4356228;80;28706;-86
2021/06/20 06:02:03;;;;;;;12.30;9.55;;;;;;;24.88;98.37;98889.08;4375924;80;28485;-85
2021/06/20 06:08:04;;;;;;;12.05;8.88;;;;;;;24.55;100.00;98895.96;4357096;79;28535;-87
2021/06/20 06:14:06;;;;;;;12.60;10.05;;;;;;;25.17;98.22;98904.77;4346186;80;28498;-84
2021/06/20 06:20:08;;;;;;;14.47;10.23;;;;;;;25.05;97.75;98899.19;4367810;80;28461;-85
2021/06/20 06:26:10;;;;;;;12.25;8.88;;;;;;;25.26;92.67;98895.11;4352954;80;28463;-85
2021/06/20 06:32:11;;;;;;;13.25;9.08;;;;;;;24.62;100.00;98897.64;4361342;80;28488;-84
2021/06/20 06:38:16;;;;;;;12.88;9.20;;;;;;;24.42;100.00;98893.68;4356205;80;28602;-82
2021/06/20 06:44:17;;;;;;;13.60;9.43;;;;;;;24.80;99.53;98894.05;4365199;79;28462;-84
2021/06/20 06:50:20;;;;;;;9.40;8.18;;;;;;;25.06;95.48;98908.48;4377297;80;28491;-87
2021/06/20 06:56:22;;;;;;;12.53;8.45;;;;;;;25.57;91.82;98893.14;4363034;80;28454;-90
2021/06/20 07:02:24;;;;;;;12.50;8.95;;;;;;;25.10;92.30;98911.38;4354155;79;28519;-90
2021/06/20 07:08:26;;;;;;;10.95;8.30;;;;;;;24.92;96.74;98903.22;4360154;79;28437;-89
2021/06/20 07:14:29;;;;;;;10.90;8.08;;;;;;;25.95;90.18;98905.13;4372055;79;28560;-86
2021/06/20 07:20:31;;;;;;;10.70;7.83;;;;;;;25.94;85.58;98900.21;4381654;79;28543;-86
2021/06/20 07:26:33;;;;;;;10.72;8.30;;;;;;;25.84;89.82;98886.86;4383454;79;28520;-86
2021/06/20 07:32:34;;;;;;;10.32;8.45;;;;;;;26.33;86.59;98890.38;4349097;79;28477;-84
2021/06/20 07:38:36;;;;;;;8.95;7.08;;;;;;;26.25;83.20;98887.13;4354783;79;28528;-84
2021/06/20 07:44:38;;;;;;;10.05;7.30;;;;;;;26.48;85.78;98866.05;4353304;79;28490;-85
2021/06/20 07:50:39;;;;;;;10.13;7.28;;;;;;;26.31;80.14;98861.77;4357182;79;28461;-83
2021/06/20 07:56:40;;;;;;;10.32;8.33;;;;;;;26.52;77.69;98860.88;4361306;80;28522;-85
2021/06/20 08:02:42;;;;;;;8.85;7.85;;;;;;;26.21;80.27;98875.20;4346040;79;28488;-83
2021/06/20 08:08:44;;;;;;;11.28;7.97;;;;;;;26.59;77.61;98872.16;4372683;80;28478;-84
2021/06/20 08:14:45;;;;;;;9.65;7.25;;;;;;;26.63;77.00;98881.92;4368778;79;28474;-83
2021/06/20 08:20:46;;;;;;;9.05;7.37;;;;;;;26.93;77.71;98872.66;4359932;80;28504;-82
2021/06/20 08:26:48;;;;;;;7.90;7.08;;;;;;;27.00;76.15;98875.05;4363331;80;28543;-85
2021/06/20 08:32:49;;;;;;;9.80;7.45;;;;;;;27.42;74.17;98858.78;4371775;80;28501;-86
2021/06/20 08:38:51;;;;;;;8.95;7.90;;;;;;;27.23;71.53;98863.55;4349384;80;28468;-85
2021/06/20 08:44:54;;;;;;;8.50;7.22;;;;;;;27.16;71.75;98856.43;4364089;80;28487;-84
2021/06/20 08:50:56;;;;;;;10.08;7.55;;;;;;;27.74;69.42;98846.29;4376017;79;28500;-84
2021/06/20 08:56:57;;;;;;;8.35;7.17;;;;;;;27.34;69.79;98843.75;4356587;79;28555;-84
2021/06/20 09:03:00;;;;;;;7.70;6.45;;;;;;;27.97;68.04;98829.36;4360704;79;28466;-84
2021/06/20 09:09:11;;;;;;;8.40;7.25;;;;;;;27.66;65.62;98832.27;4356185;79;28523;-84
2021/06/20 09:15:11;;;;;;;8.88;6.95;;;;;;;27.72;67.39;98831.44;4333877;80;28454;-81
2021/06/20 09:21:12;;;;;;;6.60;5.92;;;;;;;28.09;65.84;98827.13;4327662;80;28484;-82
2021/06/20 09:27:14;;;;;;;11.43;6.20;;;;;;;28.49;64.83;98836.44;4391908;80;28432;-80
2021/06/20 09:33:16;;;;;;;6.97;5.30;;;;;;;28.65;64.28;98835.64;4347503;80;28526;-81
2021/06/20 09:39:24;;;;;;;5.97;5.37;;;;;;;28.61;60.85;98843.03;4347104;78;28517;-80
2021/06/20 09:45:33;;;;;;;8.28;5.65;;;;;;;28.53;61.40;98844.26;4364345;80;28448;-80
2021/06/20 09:51:35;;;;;;;8.55;4.72;;;;;;;28.78;59.50;98839.90;4322007;80;28566;-80
2021/06/20 09:57:47;;;;;;;5.55;4.87;;;;;;;29.06;56.52;98824.34;4339434;80;28460;-80
2021/06/20 10:03:48;;;;;;;6.15;4.92;;;;;;;29.23;56.34;98810.67;4349103;80;28474;-80
2021/06/20 10:09:50;;;;;;;5.95;4.45;;;;;;;29.26;56.15;98789.17;4350910;80;28440;-80
2021/06/20 10:15:51;;;;;;;4.28;3.87;;;;;;;29.30;54.39;98783.72;4352912;80;28461;-81
2021/06/20 10:22:11;;;;;;;3.70;3.40;;;;;;;29.60;50.77;98776.23;4331823;80;28445;-80
2021/06/20 10:28:17;;;;;;;4.17;3.35;;;;;;;29.95;45.67;98766.99;4350365;80;28537;-80
2021/06/20 10:34:29;;;;;;;2.90;2.58;;;;;;;30.17;43.76;98779.86;4327730;80;28537;-79
2021/06/20 10:40:36;;;;;;;4.75;3.60;;;;;;;29.99;40.93;98779.50;4341990;80;28542;-80
2021/06/20 10:46:41;;;;;;;3.35;3.02;;;;;;;30.11;45.17;98775.79;4356788;80;28469;-79
2021/06/20 10:52:55;;;;;;;3.75;3.37;;;;;;;30.35;45.57;98780.15;4318398;80;28458;-80
2021/06/20 10:58:57;;;;;;;3.77;3.47;;;;;;;30.52;44.60;98776.05;4396805;79;28533;-81
2021/06/20 11:04:59;;;;;;;4.10;3.10;;;;;;;30.46;43.46;98772.02;4340230;80;28521;-82
2021/06/20 11:11:15;;;;;;;4.45;2.80;;;;;;;30.51;45.27;98767.52;4373551;80;28554;-81
2021/06/20 11:17:18;;;;;;;5.05;3.12;;;;;;;30.95;43.25;98768.17;4376718;79;28457;-80
2021/06/20 11:23:19;;;;;;;3.37;2.98;;;;;;;30.84;43.97;98761.09;4352954;80;28458;-81
2021/06/20 11:29:22;;;;;;;2.83;2.52;;;;;;;31.22;43.71;98758.41;4391161;79;28499;-83
2021/06/20 11:35:23;;;;;;;2.47;2.27;;;;;;;31.36;39.24;98741.16;4382730;79;28634;-81
2021/06/20 11:41:25;;;;;;;2.65;2.22;;;;;;;31.38;38.16;98729.07;4379951;79;28552;-80
2021/06/20 11:47:37;;;;;;;3.92;2.80;;;;;;;31.65;38.70;98737.27;4381337;79;28488;-80
2021/06/20 11:53:39;;;;;;;3.40;2.58;;;;;;;31.50;38.73;98730.19;4376448;79;28526;-82
2021/06/20 11:59:42;;;;;;;4.17;2.60;;;;;;;31.67;38.58;98721.04;4323813;80;50492;-81
2021/06/20 12:05:55;;;;;;;3.00;2.70;;;;;;;31.73;36.60;98711.16;4349979;80;28525;-90
2021/06/20 12:12:00;;;;;;;3.02;2.67;;;;;;;31.85;37.38;98705.34;4341707;80;28596;-88
2021/06/20 12:18:10;;;;;;;3.40;2.67;;;;;;;31.39;37.52;98698.13;4363075;80;28516;-88
2021/06/20 12:24:14;;;;;;;2.30;2.10;;;;;;;31.88;37.37;98692.66;4353049;80;28446;-87
2021/06/20 12:30:20;;;;;;;2.67;2.47;;;;;;;32.01;36.36;98679.27;4349709;81;29172;-85
2021/06/20 12:36:27;;;;;;;2.60;2.40;;;;;;;32.10;37.57;98685.88;4318990;81;28450;-90
2021/06/20 12:42:29;;;;;;;3.67;2.58;;;;;;;31.68;36.04;98678.18;4366776;80;28511;-87
2021/06/20 12:48:42;;;;;;;2.95;2.65;;;;;;;31.67;36.89;98682.14;4341318;80;28447;-84
2021/06/20 12:54:53;;;;;;;3.47;2.83;;;;;;;31.88;37.21;98675.20;4333894;80;28464;-86
2021/06/20 13:01:01;;;;;;;3.45;3.15;;;;;;;32.07;38.85;98671.38;4317278;80;28483;-84
2021/06/20 13:07:03;;;;;;;3.08;2.77;;;;;;;31.75;38.19;98667.11;4305746;80;28505;-86
2021/06/20 13:13:05;;;;;;;5.72;3.00;;;;;;;32.00;39.43;98673.52;4337926;80;28446;-86
2021/06/20 13:19:08;;;;;;;3.10;2.62;;;;;;;31.96;39.10;98671.28;4409168;79;28505;-83
2021/06/20 13:25:11;;;;;;;5.67;3.10;;;;;;;32.12;38.89;98684.32;4426797;79;28499;-85
2021/06/20 13:31:12;;;;;;;3.10;2.55;;;;;;;31.83;38.63;98678.53;4401298;79;28527;-85
2021/06/20 13:37:14;;;;;;;3.22;2.47;;;;;;;32.29;38.89;98674.30;4388628;79;28478;-83
2021/06/20 13:43:15;;;;;;;3.42;2.47;;;;;;;32.05;38.85;98668.19;4394551;79;28471;-82
2021/06/20 13:49:18;;;;;;;2.42;2.00;;;;;;;32.34;38.05;98669.77;4330226;80;28474;-81
2021/06/20 13:55:20;;;;;;;3.47;2.50;;;;;;;32.46;36.60;98669.48;4310745;80;28466;-84
2021/06/20 14:01:21;;;;;;;3.50;2.37;;;;;;;32.48;37.85;98665.70;4346103;79;28521;-84
2021/06/20 14:07:23;;;;;;;2.95;2.65;;;;;;;32.59;37.82;98670.53;4429966;78;28484;-85
2021/06/20 14:13:24;;;;;;;2.83;2.60;;;;;;;32.07;37.71;98663.03;4364833;81;28470;-86
2021/06/20 14:19:26;;;;;;;2.35;2.08;;;;;;;32.52;37.94;98656.77;4363109;80;28527;-87
2021/06/20 14:25:28;;;;;;;4.60;2.50;;;;;;;32.67;37.24;98654.86;4328480;80;28503;-87
2021/06/20 14:31:29;;;;;;;4.85;2.33;;;;;;;32.41;37.76;98646.19;4355921;80;28508;-87
2021/06/20 14:37:31;;;;;;;3.40;2.50;;;;;;;32.82;38.13;98640.41;4362585;80;28453;-86
2021/06/20 14:43:33;;;;;;;2.58;1.98;;;;;;;32.85;37.89;98640.81;4363793;81;28478;-86
2021/06/20 14:49:34;;;;;;;3.40;2.30;;;;;;;32.82;37.61;98648.77;4345616;80;28441;-86
2021/06/20 14:55:35;;;;;;;2.83;2.47;;;;;;;32.93;38.14;98651.63;4369792;80;28478;-87
2021/06/20 15:01:36;;;;;;;3.47;2.58;;;;;;;32.77;37.70;98639.41;4347666;80;28471;-88
2021/06/20 15:07:40;;;;;;;2.50;2.10;;;;;;;32.79;38.17;98640.39;4439946;78;28422;-93
2021/06/20 15:13:41;;;;;;;2.47;2.27;;;;;;;32.79;38.28;98634.83;4323373;80;28504;-92
2021/06/20 15:19:42;;;;;;;3.50;2.33;;;;;;;32.80;38.51;98628.06;4366111;80;28442;-92
2021/06/20 15:25:44;;;;;;;2.33;2.10;;;;;;;32.41;39.05;98636.45;4399789;78;28461;-91
2021/06/20 15:31:47;;;;;;;2.92;2.12;;;;;;;32.47;38.27;98630.73;4368523;80;28482;-91
2021/06/20 15:37:57;;;;;;;3.22;2.17;;;;;;;32.50;38.80;98629.16;4332742;80;28447;-92
2021/06/20 15:44:01;;;;;;;2.83;2.30;;;;;;;32.53;38.70;98620.80;4432530;78;28451;-89
2021/06/20 15:50:04;;;;;;;2.40;2.08;;;;;;;32.58;37.66;98615.47;4428590;78;28474;-93
2021/06/20 15:56:06;;;;;;;2.52;2.10;;;;;;;32.76;39.16;98606.39;4349165;80;28486;-89
2021/06/20 16:02:07;;;;;;;5.03;1.92;;;;;;;32.31;38.44;98594.05;4360427;80;28449;-88
2021/06/20 16:08:09;;;;;;;2.45;1.90;;;;;;;32.60;39.19;98591.44;4360284;80;28537;-92
2021/06/20 16:14:13;;;;;;;3.30;1.80;;;;;;;32.34;39.25;98599.64;4403719;78;28473;-93
2021/06/20 16:20:15;;;;;;;2.10;1.72;;;;;;;32.60;37.87;98601.17;4420801;78;28546;-91
2021/06/20 16:26:18;;;;;;;3.60;2.00;;;;;;;32.78;37.57;98586.73;4434761;78;28515;-91
2021/06/20 16:32:21;;;;;;;1.72;1.62;;;;;;;32.88;37.09;98586.55;4346177;80;28484;-86
2021/06/20 16:38:22;;;;;;;2.98;1.60;;;;;;;33.05;36.25;98585.02;4356839;80;28533;-89
2021/06/20 16:44:24;;;;;;;3.65;1.80;;;;;;;33.32;36.49;98579.68;4369288;80;28482;-92
2021/06/20 16:50:26;;;;;;;3.72;2.02;;;;;;;32.85;35.93;98582.36;4372069;80;28426;-90
2021/06/20 16:56:27;;;;;;;2.75;1.72;;;;;;;33.05;35.47;98575.89;4383999;80;28452;-92
2021/06/20 17:02:31;;;;;;;1.95;1.75;;;;;;;33.66;34.62;98561.22;4359820;80;28579;-90
2021/06/20 17:08:34;;;;;;;2.65;1.80;;;;;;;34.60;34.08;98569.95;4340475;80;28480;-91
2021/06/20 17:14:36;;;;;;;2.10;1.90;;;;;;;34.65;34.12;98563.96;4361405;80;28448;-93
2021/06/20 17:20:37;;;;;;;2.30;2.05;;;;;;;35.22;33.83;98540.30;4373949;80;28475;-86
2021/06/20 17:26:38;;;;;;;3.70;2.30;;;;;;;35.22;33.83;98540.30;4395278;78;28461;-85
2021/06/20 17:32:40;;;;;;;3.70;2.37;;;;;;;34.97;34.54;98551.00;4413562;79;28478;-88
2021/06/20 17:38:41;;;;;;;3.47;2.22;;;;;;;35.17;34.29;98542.92;4359998;80;28436;-88
2021/06/20 17:44:43;;;;;;;4.20;2.47;;;;;;;35.37;34.51;98547.34;4313535;80;28464;-89
2021/06/20 17:50:44;;;;;;;3.47;2.65;;;;;;;35.59;33.88;98559.16;4384498;80;28480;-89
2021/06/20 17:56:46;;;;;;;2.87;2.20;;;;;;;35.71;33.58;98556.44;4384316;78;28579;-89
2021/06/20 18:02:49;;;;;;;7.65;2.60;;;;;;;35.36;33.93;98556.16;4339757;80;28473;-90
2021/06/20 18:08:51;;;;;;;4.70;2.33;;;;;;;36.23;32.68;98561.70;4359483;80;28533;-89
2021/06/20 18:14:53;;;;;;;5.78;2.40;;;;;;;36.87;31.59;98571.13;4350077;80;28480;-89
2021/06/20 18:20:54;;;;;;;8.68;2.75;;;;;;;35.20;34.28;98557.45;4429315;78;28438;-89
2021/06/20 18:26:55;;;;;;;5.25;2.40;;;;;;;34.18;36.02;98566.91;4379567;80;28435;-88
2021/06/20 18:32:57;;;;;;;3.45;2.50;;;;;;;33.12;37.96;98570.92;4373960;80;28487;-86
2021/06/20 18:38:58;;;;;;;2.70;2.50;;;;;;;32.75;39.39;98573.61;4370498;80;28455;-89
2021/06/20 18:45:00;;;;;;;4.92;2.60;;;;;;;32.41;40.28;98575.26;4345392;80;28463;-89
2021/06/20 18:51:02;;;;;;;3.33;2.60;;;;;;;31.77;42.78;98575.04;4303493;80;28498;-88
2021/06/20 18:57:04;;;;;;;4.00;2.70;;;;;;;31.50;43.32;98576.03;4348579;80;28521;-87
2021/06/20 19:03:07;;;;;;;4.20;2.77;;;;;;;31.23;44.47;98588.67;4346060;80;28517;-87
2021/06/20 19:09:09;;;;;;;6.45;3.45;;;;;;;30.97;45.56;98591.77;4356767;81;28445;-87
2021/06/20 19:15:13;;;;;;;4.15;3.02;;;;;;;30.70;46.40;98597.41;4341828;80;28471;-87
2021/06/20 19:21:16;;;;;;;5.17;3.12;;;;;;;30.50;47.33;98589.82;4357668;80;28453;-88
2021/06/20 19:27:22;;;;;;;5.67;3.72;;;;;;;30.24;49.75;98588.67;4338495;81;28478;-88
2021/06/20 19:33:23;;;;;;;;;;;;;;;30.12;49.05;98599.42;4360383;81;28523;-88
2021/06/20 19:39:25;;;;;;;5.60;3.85;;;;;;;29.88;51.47;98604.17;4357548;82;20153;-91
2021/06/20 19:45:28;;;;;;;8.20;4.40;;;;;;;29.79;52.05;98609.20;4356829;81;28519;-91
2021/06/20 19:51:30;;;;;;;8.78;4.20;;;;;;;29.42;53.21;98617.47;4392818;80;28450;-86
2021/06/20 19:57:44;;;;;;;9.73;4.35;;;;;;;28.97;56.87;98614.84;4319531;80;28478;-88
2021/06/20 20:03:45;;;;;;;12.13;4.67;;;;;;;28.75;57.62;98625.45;4445177;80;28500;-92
2021/06/20 20:09:47;;;;;;;9.10;6.15;;;;;;;28.63;58.82;98629.97;4504124;78;28427;-89
2021/06/20 20:15:49;;;;;;;9.73;5.10;;;;;;;28.52;59.59;98632.49;4333999;80;28494;-86
2021/06/20 20:21:50;;;;;;;7.25;4.35;;;;;;;28.56;58.92;98634.55;4368992;80;28490;-88
2021/06/20 20:27:53;;;;;;;6.65;5.20;;;;;;;28.32;60.71;98620.63;4352991;80;28539;-87
2021/06/20 20:33:56;;;;;;;6.17;5.42;;;;;;;27.96;64.90;98610.91;4383760;80;28534;-88
2021/06/20 20:39:58;;;;;;;7.45;5.95;;;;;;;28.08;62.63;98607.81;4445320;78;28520;-88
2021/06/20 20:45:59;;;;;;;6.80;5.67;;;;;;;27.99;62.44;98608.02;4344556;80;28520;-86
2021/06/20 20:52:01;;;;;;;7.85;6.03;;;;;;;28.01;63.27;98613.98;4347349;80;28572;-88
2021/06/20 20:58:02;;;;;;;9.40;6.12;;;;;;;27.97;63.49;98608.95;4370340;79;28601;-89
2021/06/20 21:04:05;;;;;;;9.45;6.30;;;;;;;27.76;64.89;98611.44;4311258;82;28470;-88
2021/06/20 21:10:08;;;;;;;11.33;6.42;;;;;;;27.71;64.98;98613.66;4406021;80;28445;-88
2021/06/20 21:16:10;;;;;;;9.00;6.58;;;;;;;27.54;68.44;98615.05;4357117;80;28509;-88
2021/06/20 21:22:11;;;;;;;8.93;6.90;;;;;;;27.57;67.64;98614.89;4381664;80;28485;-87
2021/06/20 21:28:13;;;;;;;7.17;6.40;;;;;;;27.64;67.82;98605.98;4330731;82;28519;-90
2021/06/20 21:34:16;;;;;;;8.35;6.25;;;;;;;27.67;67.68;98608.05;4331769;80;28534;-86
2021/06/20 21:40:19;;;;;;;10.95;6.80;;;;;;;27.54;68.50;98606.77;4308030;80;28456;-87
2021/06/20 21:46:21;;;;;;;9.95;7.55;;;;;;;27.34;70.92;98594.78;4314720;80;28464;-87
2021/06/20 21:52:22;;;;;;;8.38;6.58;;;;;;;27.05;72.86;98596.78;4310262;80;28460;-87
2021/06/20 21:58:23;;;;;;;11.08;7.12;;;;;;;27.13;71.54;98595.03;4342922;80;28474;-88
2021/06/20 22:04:25;;;;;;;10.10;7.90;;;;;;;26.92;74.51;98598.81;4307809;80;28460;-85
2021/06/20 22:10:27;;;;;;;8.85;7.53;;;;;;;26.77;76.13;98594.02;4348951;80;28464;-84
2021/06/20 22:16:29;;;;;;;8.55;7.22;;;;;;;26.67;79.07;98590.60;4297760;80;28497;-86
2021/06/20 22:22:30;;;;;;;9.83;7.62;;;;;;;26.85;77.69;98579.28;4325927;80;28476;-86
2021/06/20 22:28:31;;;;;;;9.15;7.22;;;;;;;26.67;79.89;98578.79;4295568;80;28488;-84
2021/06/20 22:34:33;;;;;;;9.38;7.40;;;;;;;26.47;84.01;98573.67;4365934;80;28519;-86
2021/06/20 22:40:35;;;;;;;10.72;8.33;;;;;;;26.55;83.26;98576.87;4343537;80;28442;-88
2021/06/20 22:46:37;;;;;;;10.78;8.38;;;;;;;26.52;82.22;98581.71;4293597;80;28516;-88
2021/06/20 22:52:41;;;;;;;10.80;7.67;;;;;;;26.19;84.43;98564.22;4349487;80;28512;-87
2021/06/20 22:58:45;;;;;;;7.83;7.00;;;;;;;25.92;91.96;98569.86;4327550;80;28480;-88
2021/06/20 23:04:47;;;;;;;8.55;7.60;;;;;;;26.62;81.04;98561.10;4328850;80;28454;-87
2021/06/20 23:10:48;;;;;;;11.40;8.08;;;;;;;26.49;83.55;98547.94;4377794;80;28501;-87
2021/06/20 23:16:50;;;;;;;9.20;7.97;;;;;;;26.17;84.47;98554.88;4411604;79;28421;-87
2021/06/20 23:22:53;;;;;;;8.43;7.60;;;;;;;26.16;85.18;98556.04;4382477;80;28446;-88
2021/06/20 23:28:54;;;;;;;11.33;8.20;;;;;;;26.15;86.66;98563.30;4340450;80;28514;-87
2021/06/20 23:34:56;;;;;;;11.38;8.45;;;;;;;26.31;82.63;98551.78;4335089;80;28474;-85
2021/06/20 23:40:57;;;;;;;8.90;8.00;;;;;;;25.78;91.51;98552.31;4299325;80;28429;-86
2021/06/20 23:46:59;;;;;;;11.60;9.43;;;;;;;25.89;88.59;98549.31;4408814;80;28477;-85
2021/06/20 23:53:00;;;;;;;9.78;8.28;;;;;;;25.80;86.83;98554.14;4307681;80;28488;-85
2021/06/20 23:59:02;;;;;;;13.48;8.88;;;;;;;25.37;95.01;98547.45;4383420;80;28609;-85
